Guardiao — CSYF9 — position and weather

sailwx.info

Track history (hours):
 
Tides and Currents Weather Stations Pressure Air Temp Water Temp Dewpoint Dewpoint Depression Visibility Wind Speed Wind Dir Waves Ship Positions

Guardiao

Last reported at 2014-Oct-14 07:30 UTC. Time now 2014-Oct-26 00:14 UTC.
Position N 38°29' W 008°56'.
Warning: this ship's position is 11 days out of date.

; draft 4.5 m.

Type: Tug. MMSI: 263601860.

Date/timePositionNaut miles runAvg speedWind from/ knotsBaromVisibWave heightAir tempDewpointWater temp
2014-Oct-14 07:30N 38°29' W 008°56'2 2.2
2014-Oct-14 06:27N 38°30' W 008°53'2 0.0
2014-Oct-12 06:22N 38°29' W 008°56'6 7.4
2014-Oct-12 05:33N 38°25' W 009°02'8 7.5
2014-Oct-12 04:29N 38°22' W 009°11'4 0.1
2014-Oct-10 23:30N 38°23' W 009°07'9 9.7
2014-Oct-10 22:33N 38°28' W 008°57'3 0.2
2014-Oct-10 08:15N 38°30' W 008°54'3 4.1
2014-Oct-10 07:26N 38°30' W 008°50'  
Track history (hours):
 
Tides and Currents Weather Stations Pressure Air Temp Water Temp Dewpoint Dewpoint Depression Visibility Wind Speed Wind Dir Waves Ship Positions

Guardiao

Last reported at 2014-Oct-14 07:30 UTC. Time now 2014-Oct-26 00:14 UTC.
Position N 38°29' W 008°56'.
Warning: this ship's position is 11 days out of date.

; draft 4.5 m.

Type: Tug. MMSI: 263601860.

Date/timePositionNaut miles runAvg speedWind from/ knotsBaromVisibWave heightAir tempDewpointWater temp
2014-Oct-14 07:30N 38°29' W 008°56'2 2.2
2014-Oct-14 06:27N 38°30' W 008°53'2 0.0
2014-Oct-12 06:22N 38°29' W 008°56'6 7.4
2014-Oct-12 05:33N 38°25' W 009°02'8 7.5
2014-Oct-12 04:29N 38°22' W 009°11'4 0.1
2014-Oct-10 23:30N 38°23' W 009°07'9 9.7
2014-Oct-10 22:33N 38°28' W 008°57'3 0.2
2014-Oct-10 08:15N 38°30' W 008°54'3 4.1
2014-Oct-10 07:26N 38°30' W 008°50'  

Dump ship's entire track history